Surface Data

81.3 °F / 27.4 °C
NE at 13 MPH
85%
76.6°F / 24.8 °C
29.87" (1011 mb)
10 mile(s)
partly cloudy
2024.04.13 1300 UTC

Surface Data

Raw METARs

2024/04/13 13:00
PKWA 131300Z AUTO 04011KT 10SM SCT016 SCT022 27/25 A2987 RMK AO2 T02740248 TSNO

Translated METAR

Kwajalein, Bucholz AAF, Kwajalein KMR ATOL Airport, Marshall Islands (PKWA) 08-43N 167-44E 2M
Apr 13, 2024 - 09:00 AM EDT / 2024.04.13 1300 UTC
Wind: from the NE (040 degrees) at 13 MPH (11 KT):0
Visibility: 10 mile(s):0
Sky conditions: partly cloudy
Temperature: 81.3 F (27.4 C)
Dew Point: 76.6 F (24.8 C)
Relative Humidity: 85%
Pressure (altimeter): 29.87 in. Hg (1011 hPa)
ob: PKWA 131300Z AUTO 04011KT 10SM SCT016 SCT022 27/25 A2987 RMK AO2 T02740248 TSNO
cycle: 13